createdAt,value
2019-03-08T00:02:25.115Z,3.13
2019-03-08T00:04:51.009Z,3.13
2019-03-08T00:07:16.793Z,3.60
2019-03-08T00:09:42.593Z,3.60
2019-03-08T00:12:10.173Z,3.70
2019-03-08T00:14:36.138Z,3.40
2019-03-08T00:17:03.965Z,3.13
2019-03-08T00:19:30.141Z,3.90
2019-03-08T00:21:55.931Z,4.43
2019-03-08T00:24:21.731Z,4.10
2019-03-08T00:26:47.529Z,4.37
2019-03-08T00:29:13.315Z,3.97
2019-03-08T00:31:39.092Z,4.00
2019-03-08T00:34:04.886Z,3.97
2019-03-08T00:36:30.660Z,4.03
2019-03-08T00:38:56.466Z,3.40
2019-03-08T00:41:22.250Z,3.63
2019-03-08T00:43:48.055Z,4.23
2019-03-08T00:46:13.836Z,3.90
2019-03-08T00:48:40.037Z,4.10
2019-03-08T00:51:05.822Z,3.60
2019-03-08T00:53:31.615Z,3.90
2019-03-08T00:55:57.396Z,3.90
2019-03-08T00:58:23.197Z,3.77
2019-03-08T01:00:48.982Z,3.77
2019-03-08T01:03:14.772Z,3.80
2019-03-08T01:05:40.559Z,3.70
2019-03-08T01:08:06.654Z,3.90
2019-03-08T01:10:32.543Z,4.37
2019-03-08T01:12:58.324Z,4.40
2019-03-08T01:15:24.225Z,4.03
2019-03-08T01:17:50.001Z,5.20
2019-03-08T01:20:17.203Z,4.50
2019-03-08T01:22:42.989Z,4.73
2019-03-08T01:25:09.569Z,4.40
2019-03-08T01:27:35.460Z,4.37
2019-03-08T01:30:01.534Z,4.30
2019-03-08T01:32:27.367Z,5.00
2019-03-08T01:34:53.140Z,4.53
2019-03-08T01:37:20.473Z,4.30
2019-03-08T01:39:46.423Z,4.17
2019-03-08T01:42:12.206Z,4.57
2019-03-08T01:44:38.196Z,3.13
2019-03-08T01:47:03.984Z,4.67
2019-03-08T01:49:29.755Z,4.47
2019-03-08T01:51:55.554Z,3.63
2019-03-08T01:54:21.334Z,4.13
2019-03-08T01:56:47.143Z,4.20
2019-03-08T01:59:12.930Z,3.40
2019-03-08T02:01:38.940Z,3.40
2019-03-08T02:04:05.011Z,4.07
2019-03-08T02:06:30.803Z,3.90
2019-03-08T02:08:56.579Z,3.50
2019-03-08T02:11:22.376Z,3.27
2019-03-08T02:13:48.149Z,3.50
2019-03-08T02:16:13.941Z,3.37
2019-03-08T02:18:39.711Z,3.87
2019-03-08T02:21:06.977Z,3.67
2019-03-08T02:23:33.185Z,3.03
2019-03-08T02:25:58.971Z,3.10
2019-03-08T02:28:24.765Z,2.60
2019-03-08T02:30:50.539Z,2.83
2019-03-08T02:33:16.327Z,3.00
2019-03-08T02:35:42.097Z,3.07
2019-03-08T02:38:07.887Z,2.80
2019-03-08T02:40:35.364Z,2.73
2019-03-08T02:43:09.199Z,2.30
2019-03-08T02:45:34.981Z,2.20
2019-03-08T02:48:00.762Z,1.93
2019-03-08T02:50:26.532Z,2.10
2019-03-08T02:52:52.316Z,2.10
2019-03-08T02:55:18.213Z,1.97
2019-03-08T02:57:44.308Z,2.17
2019-03-08T03:00:12.382Z,1.93
2019-03-08T03:02:38.172Z,2.10
2019-03-08T03:05:05.149Z,2.60
2019-03-08T03:07:30.988Z,2.60
2019-03-08T03:09:56.767Z,2.37
2019-03-08T03:12:22.551Z,2.13
2019-03-08T03:14:48.343Z,2.20
2019-03-08T03:17:14.138Z,2.57
2019-03-08T03:19:39.922Z,2.50
2019-03-08T03:22:05.703Z,2.53
2019-03-08T03:24:31.503Z,2.50
2019-03-08T03:26:57.287Z,2.80
2019-03-08T03:29:23.075Z,2.30
2019-03-08T03:31:48.861Z,3.27
2019-03-08T03:34:14.635Z,2.37
2019-03-08T03:36:40.403Z,2.60
2019-03-08T03:39:06.195Z,2.40
2019-03-08T03:41:31.972Z,2.80
2019-03-08T03:43:57.773Z,2.90
2019-03-08T03:46:23.594Z,3.40
2019-03-08T03:48:49.371Z,3.40
2019-03-08T03:51:15.142Z,4.07
2019-03-08T03:53:40.929Z,3.80
2019-03-08T03:56:06.703Z,4.27
2019-03-08T03:58:32.474Z,4.67
2019-03-08T04:00:58.366Z,4.50
2019-03-08T04:03:24.139Z,4.60
2019-03-08T04:05:49.930Z,4.80
2019-03-08T04:08:15.700Z,5.70
2019-03-08T04:10:41.486Z,6.00
2019-03-08T04:13:07.266Z,5.80
2019-03-08T04:15:33.053Z,5.63
2019-03-08T04:17:58.835Z,6.23
2019-03-08T04:20:24.635Z,5.43
2019-03-08T04:22:50.414Z,6.07
2019-03-08T04:25:16.222Z,7.17
2019-03-08T04:27:41.993Z,6.00
2019-03-08T04:30:13.725Z,6.60
2019-03-08T04:32:39.502Z,5.63
2019-03-08T04:35:05.290Z,4.93
2019-03-08T04:37:31.061Z,4.40
2019-03-08T04:39:56.850Z,5.50
2019-03-08T04:42:22.630Z,4.20
2019-03-08T04:44:48.431Z,5.70
2019-03-08T04:47:14.203Z,4.30
2019-03-08T04:49:39.995Z,4.30
2019-03-08T04:52:05.867Z,4.67
2019-03-08T04:54:31.648Z,4.57
2019-03-08T04:56:57.427Z,4.60
2019-03-08T04:59:23.216Z,3.23
2019-03-08T05:01:49.003Z,3.80
2019-03-08T05:04:14.778Z,4.23
2019-03-08T05:06:40.563Z,3.47
2019-03-08T05:09:06.842Z,4.10
2019-03-08T05:11:32.631Z,2.70
2019-03-08T05:13:58.407Z,3.40
2019-03-08T05:16:24.199Z,3.30
2019-03-08T05:18:49.976Z,3.33
2019-03-08T05:21:15.763Z,3.50
2019-03-08T05:23:41.538Z,3.93
2019-03-08T05:26:07.338Z,3.37
2019-03-08T05:28:33.126Z,3.43
2019-03-08T05:30:58.921Z,3.20
2019-03-08T05:33:24.702Z,3.30
2019-03-08T05:35:50.512Z,3.00
2019-03-08T05:38:16.282Z,2.80
2019-03-08T05:40:42.057Z,2.80
2019-03-08T05:43:07.843Z,3.00
2019-03-08T05:45:33.619Z,3.00
2019-03-08T05:47:59.402Z,2.87
2019-03-08T05:50:25.282Z,3.20
2019-03-08T05:52:51.067Z,2.70
2019-03-08T05:55:16.854Z,2.30
2019-03-08T05:57:42.641Z,2.40
2019-03-08T06:00:15.068Z,2.10
2019-03-08T06:02:40.862Z,1.83
2019-03-08T06:05:06.730Z,2.07
2019-03-08T06:07:32.819Z,2.70
2019-03-08T06:09:58.590Z,2.53
2019-03-08T06:12:24.379Z,1.87
2019-03-08T06:14:50.155Z,1.80
2019-03-08T06:17:15.939Z,2.67
2019-03-08T06:19:41.726Z,2.57
2019-03-08T06:22:07.536Z,3.20
2019-03-08T06:24:33.305Z,2.37
2019-03-08T06:26:59.099Z,3.17
2019-03-08T06:29:25.291Z,2.93
2019-03-08T06:31:51.063Z,3.33
2019-03-08T06:34:16.853Z,3.37
2019-03-08T06:36:42.626Z,3.97
2019-03-08T06:39:08.443Z,3.70
2019-03-08T06:41:34.191Z,3.87
2019-03-08T06:43:59.989Z,3.33
2019-03-08T06:46:25.769Z,3.30
2019-03-08T06:48:51.865Z,4.07
2019-03-08T06:51:17.635Z,4.50
2019-03-08T06:53:43.424Z,4.87
2019-03-08T06:56:09.200Z,3.77
2019-03-08T06:58:36.899Z,4.27
2019-03-08T07:01:04.582Z,5.93
2019-03-08T07:03:30.374Z,6.33
2019-03-08T07:05:56.155Z,6.17
2019-03-08T07:08:22.151Z,6.43
2019-03-08T07:10:47.923Z,6.77
2019-03-08T07:13:13.732Z,6.33
2019-03-08T07:15:39.511Z,6.97
2019-03-08T07:18:12.217Z,7.23
2019-03-08T07:20:34.905Z,7.57
2019-03-08T07:23:27.575Z,7.73
2019-03-08T07:25:52.574Z,7.37
2019-03-08T07:28:30.574Z,7.00
2019-03-08T07:31:10.374Z,7.17
2019-03-08T07:33:53.170Z,8.23
2019-03-08T07:36:28.501Z,7.70
2019-03-08T07:39:12.646Z,8.23
2019-03-08T07:41:40.302Z,8.30
2019-03-08T07:44:08.000Z,6.43
2019-03-08T07:46:52.275Z,8.67
2019-03-08T07:49:25.755Z,6.00
2019-03-08T07:51:56.287Z,7.60
2019-03-08T07:54:30.070Z,7.07
2019-03-08T07:57:00.537Z,7.87
2019-03-08T07:59:33.762Z,7.63
2019-03-08T08:02:01.442Z,7.60
2019-03-08T08:04:31.905Z,7.50
2019-03-08T08:07:02.355Z,7.23
2019-03-08T08:09:30.041Z,8.20
2019-03-08T08:12:03.537Z,7.73
2019-03-08T08:14:39.586Z,6.90
2019-03-08T08:17:12.294Z,7.37
2019-03-08T08:19:46.055Z,6.30
2019-03-08T08:22:16.527Z,8.00
2019-03-08T08:24:44.207Z,5.33
2019-03-08T08:27:24.436Z,4.60
2019-03-08T08:29:52.120Z,5.67
2019-03-08T08:32:36.382Z,5.63
2019-03-08T08:35:07.069Z,6.80
2019-03-08T08:37:37.291Z,6.90
2019-03-08T08:40:08.179Z,6.53
2019-03-08T08:42:35.871Z,5.63
2019-03-08T08:45:12.502Z,4.63
2019-03-08T08:47:56.545Z,5.23
2019-03-08T08:50:24.233Z,5.90
2019-03-08T08:52:51.928Z,5.47
2019-03-08T08:55:22.634Z,6.63
2019-03-08T08:58:08.206Z,5.70
2019-03-08T09:00:44.483Z,5.53
2019-03-08T09:03:12.179Z,5.23
2019-03-08T09:05:56.407Z,5.33
2019-03-08T09:08:24.419Z,4.53
2019-03-08T09:10:54.902Z,5.00
2019-03-08T09:13:39.407Z,4.67
2019-03-08T09:16:22.277Z,4.03
2019-03-08T09:18:55.795Z,4.63
2019-03-08T09:21:23.497Z,4.37
2019-03-08T09:23:51.179Z,4.73
2019-03-08T09:26:21.814Z,4.77
2019-03-08T09:28:58.568Z,5.10
2019-03-08T09:31:26.252Z,4.83
2019-03-08T09:33:53.945Z,4.93
2019-03-08T09:36:21.627Z,5.83
2019-03-08T09:38:49.319Z,4.97
2019-03-08T09:41:17.006Z,5.73
2019-03-08T09:43:44.702Z,4.77
2019-03-08T09:46:21.313Z,5.20
2019-03-08T09:48:51.534Z,4.73
2019-03-08T09:51:19.216Z,5.50
2019-03-08T09:54:02.007Z,6.00
2019-03-08T09:56:29.674Z,5.60
2019-03-08T09:59:00.002Z,4.07
2019-03-08T10:01:36.746Z,2.87
2019-03-08T10:04:04.452Z,4.50
2019-03-08T10:06:40.953Z,2.87
2019-03-08T10:09:25.242Z,4.03
2019-03-08T10:12:09.682Z,3.70
2019-03-08T10:14:40.318Z,2.70
2019-03-08T10:17:08.003Z,4.03
2019-03-08T10:19:35.703Z,4.80
2019-03-08T10:22:21.596Z,3.70
2019-03-08T10:25:05.946Z,4.53
2019-03-08T10:27:38.408Z,4.60
2019-03-08T10:30:24.617Z,4.27
2019-03-08T10:33:10.247Z,4.43
2019-03-08T10:35:40.603Z,3.07
2019-03-08T10:38:08.283Z,3.40
2019-03-08T10:40:35.971Z,3.77
2019-03-08T10:43:12.417Z,3.70
2019-03-08T10:45:42.902Z,3.27
2019-03-08T10:48:13.393Z,4.17
2019-03-08T10:50:44.053Z,3.57
2019-03-08T10:53:28.465Z,4.40
2019-03-08T10:55:58.976Z,3.00
2019-03-08T10:58:26.665Z,3.23
2019-03-08T11:00:56.908Z,3.77
2019-03-08T11:03:24.596Z,4.77
2019-03-08T11:05:54.830Z,4.13
2019-03-08T11:08:29.560Z,3.67
2019-03-08T11:10:52.311Z,3.83
2019-03-08T11:13:43.318Z,4.23
2019-03-08T11:16:09.038Z,4.20
2019-03-08T11:18:55.258Z,4.20
2019-03-08T11:21:31.700Z,4.23
2019-03-08T11:24:11.276Z,4.33
2019-03-08T11:26:47.882Z,4.43
2019-03-08T11:29:18.455Z,4.37
2019-03-08T11:31:46.151Z,4.10
2019-03-08T11:34:13.837Z,5.33
2019-03-08T11:36:44.065Z,4.60
2019-03-08T11:39:25.863Z,5.07
2019-03-08T11:41:59.368Z,5.63
2019-03-08T11:44:29.854Z,5.10
2019-03-08T11:47:15.828Z,3.87
2019-03-08T11:50:00.347Z,4.43
2019-03-08T11:52:33.755Z,4.43
2019-03-08T11:55:01.450Z,3.20
2019-03-08T11:57:29.545Z,3.80
2019-03-08T11:59:57.233Z,4.57
2019-03-08T12:02:38.061Z,3.33
2019-03-08T12:05:25.220Z,4.10
2019-03-08T12:08:01.771Z,3.87
2019-03-08T12:10:29.479Z,3.87
2019-03-08T12:12:57.179Z,3.80
2019-03-08T12:15:30.659Z,4.00
2019-03-08T12:18:01.203Z,3.77
2019-03-08T12:20:28.893Z,4.67
2019-03-08T12:23:08.234Z,3.87
2019-03-08T12:25:41.444Z,2.67
2019-03-08T12:28:11.963Z,3.73
2019-03-08T12:30:39.656Z,3.63
2019-03-08T12:33:19.133Z,3.33
2019-03-08T12:35:49.376Z,3.23
2019-03-08T12:38:22.783Z,3.03
2019-03-08T12:41:02.556Z,3.47
2019-03-08T12:43:46.802Z,4.30
2019-03-08T12:46:14.492Z,3.40
2019-03-08T12:49:00.406Z,4.20
2019-03-08T12:51:28.108Z,4.10
2019-03-08T12:53:55.798Z,3.77
2019-03-08T12:56:29.125Z,3.47
2019-03-08T12:59:11.678Z,4.50
2019-03-08T13:01:45.270Z,3.73
2019-03-08T13:04:12.974Z,3.87
2019-03-08T13:06:40.671Z,4.07
2019-03-08T13:09:20.203Z,4.60
2019-03-08T13:11:45.984Z,5.00
2019-03-08T13:14:11.778Z,4.43
2019-03-08T13:16:38.379Z,4.00
2019-03-08T13:19:04.173Z,3.87
2019-03-08T13:21:29.949Z,4.20
2019-03-08T13:23:55.751Z,3.97
2019-03-08T13:26:21.637Z,4.07
2019-03-08T13:28:47.427Z,3.40
2019-03-08T13:31:13.216Z,3.97
2019-03-08T13:33:39.012Z,6.20
2019-03-08T13:36:04.792Z,5.53
2019-03-08T13:38:30.582Z,5.17
2019-03-08T13:40:56.373Z,3.70
2019-03-08T13:43:22.207Z,4.07
2019-03-08T13:45:47.987Z,3.40
2019-03-08T13:48:13.767Z,3.00
2019-03-08T13:50:39.556Z,2.77
2019-03-08T13:53:05.341Z,2.90
2019-03-08T13:55:31.147Z,3.17
2019-03-08T13:57:56.919Z,3.27
2019-03-08T14:00:22.740Z,2.47
2019-03-08T14:02:48.518Z,2.90
2019-03-08T14:05:14.410Z,3.50
2019-03-08T14:07:40.207Z,3.20
2019-03-08T14:10:17.719Z,3.33
2019-03-08T14:12:43.508Z,3.30
2019-03-08T14:15:16.494Z,4.40
2019-03-08T14:17:42.283Z,3.57
2019-03-08T14:20:15.144Z,3.47
2019-03-08T14:22:40.959Z,3.53
2019-03-08T14:25:06.738Z,4.00
2019-03-08T14:27:32.532Z,3.17
2019-03-08T14:29:59.197Z,3.27
2019-03-08T14:32:26.895Z,3.50
2019-03-08T14:34:53.574Z,3.00
2019-03-08T14:37:20.690Z,3.07
2019-03-08T14:39:46.600Z,2.67
2019-03-08T14:42:16.822Z,2.90
2019-03-08T14:44:50.422Z,2.73
2019-03-08T14:47:20.873Z,3.37
2019-03-08T14:49:46.950Z,4.30
2019-03-08T14:52:12.735Z,3.47
2019-03-08T14:54:42.285Z,3.17
2019-03-08T14:57:09.226Z,2.90
2019-03-08T14:59:33.923Z,3.00
2019-03-08T15:01:59.715Z,2.63
2019-03-08T15:04:25.491Z,2.70
2019-03-08T15:06:53.190Z,2.20
2019-03-08T15:09:18.977Z,2.30
2019-03-08T15:11:44.774Z,2.40
2019-03-08T15:14:10.531Z,3.40
2019-03-08T15:16:39.207Z,2.63
2019-03-08T15:19:04.954Z,2.50
2019-03-08T15:21:33.253Z,2.93
2019-03-08T15:23:58.518Z,2.90
2019-03-08T15:26:24.296Z,3.20
2019-03-08T15:28:50.087Z,3.40
2019-03-08T15:31:15.868Z,3.33
2019-03-08T15:33:41.650Z,4.13
2019-03-08T15:36:07.428Z,3.43
2019-03-08T15:38:33.211Z,3.77
2019-03-08T15:40:58.990Z,3.87
2019-03-08T15:43:24.778Z,3.40
2019-03-08T15:45:50.574Z,3.50
2019-03-08T15:48:16.360Z,3.30
2019-03-08T15:50:42.838Z,4.00
2019-03-08T15:53:09.848Z,2.77
2019-03-08T15:55:35.626Z,3.53
2019-03-08T15:58:01.417Z,3.40
2019-03-08T16:00:27.198Z,4.30
2019-03-08T16:02:54.610Z,2.73
2019-03-08T16:05:24.006Z,3.30
2019-03-08T16:07:48.349Z,2.80
2019-03-08T16:10:15.340Z,3.03
2019-03-08T16:12:41.318Z,3.10
2019-03-08T16:15:08.809Z,3.40
2019-03-08T16:17:36.605Z,3.23
2019-03-08T16:20:04.796Z,3.13
2019-03-08T16:22:30.581Z,3.10
2019-03-08T16:24:56.365Z,3.10
2019-03-08T16:27:22.444Z,3.73
2019-03-08T16:29:48.235Z,3.60
2019-03-08T16:32:21.810Z,3.23
2019-03-08T16:34:48.873Z,3.97
2019-03-08T16:37:19.632Z,3.63
2019-03-08T16:40:02.291Z,3.40
2019-03-08T16:42:32.975Z,4.30
2019-03-08T16:45:03.164Z,4.33
2019-03-08T16:47:33.656Z,3.90
2019-03-08T16:50:04.225Z,3.57
2019-03-08T16:52:31.908Z,3.60
2019-03-08T16:55:06.055Z,3.63
2019-03-08T16:57:51.606Z,3.80
2019-03-08T17:00:27.979Z,4.83
2019-03-08T17:03:04.214Z,3.33
2019-03-08T17:05:37.694Z,3.07
2019-03-08T17:08:08.174Z,4.00
2019-03-08T17:10:35.868Z,3.93
2019-03-08T17:13:12.400Z,3.50
2019-03-08T17:15:48.936Z,4.33
2019-03-08T17:18:34.684Z,3.93
2019-03-08T17:21:11.259Z,4.10
2019-03-08T17:23:47.941Z,5.67
2019-03-08T17:26:33.956Z,4.20
2019-03-08T17:29:13.664Z,4.40
2019-03-08T17:31:47.633Z,4.00
2019-03-08T17:34:15.516Z,3.07
2019-03-08T17:36:49.057Z,3.57
2019-03-08T17:39:28.735Z,3.77
2019-03-08T17:41:56.436Z,3.77
2019-03-08T17:44:36.329Z,3.43
2019-03-08T17:47:16.171Z,3.53
2019-03-08T17:49:43.852Z,3.93
2019-03-08T17:52:11.551Z,5.33
2019-03-08T17:54:45.307Z,4.47
2019-03-08T17:57:13.002Z,5.07
2019-03-08T17:59:57.116Z,4.93
2019-03-08T18:02:24.809Z,4.33
2019-03-08T18:05:04.298Z,5.20
2019-03-08T18:07:32.013Z,5.20
2019-03-08T18:10:05.479Z,6.10
2019-03-08T18:12:33.166Z,5.80
2019-03-08T18:15:03.932Z,6.20
2019-03-08T18:17:37.363Z,6.37
2019-03-08T18:20:24.387Z,7.77
2019-03-08T18:22:52.085Z,8.97
2019-03-08T18:25:25.744Z,9.93
2019-03-08T18:27:59.367Z,10.30
2019-03-08T18:30:32.879Z,7.30
2019-03-08T18:33:09.143Z,7.07
2019-03-08T18:35:39.359Z,8.17
2019-03-08T18:38:10.081Z,6.17
2019-03-08T18:40:52.862Z,7.00
2019-03-08T18:43:37.431Z,8.67
2019-03-08T18:46:21.709Z,8.10
2019-03-08T18:49:01.359Z,6.57
2019-03-08T18:51:45.490Z,5.20
2019-03-08T18:54:13.197Z,7.83
2019-03-08T18:56:57.515Z,7.40
2019-03-08T18:59:25.213Z,6.77
2019-03-08T19:02:09.325Z,5.13
2019-03-08T19:04:49.123Z,5.77
2019-03-08T19:07:19.802Z,5.17
2019-03-08T19:09:47.495Z,5.20
2019-03-08T19:12:17.812Z,5.33
2019-03-08T19:14:48.039Z,5.07
2019-03-08T19:17:16.047Z,5.27
2019-03-08T19:19:43.757Z,5.07
2019-03-08T19:22:26.455Z,4.73
2019-03-08T19:24:55.474Z,5.33
2019-03-08T19:27:40.001Z,5.40
2019-03-08T19:30:25.306Z,5.93
2019-03-08T19:33:09.702Z,5.00
2019-03-08T19:35:55.640Z,5.47
2019-03-08T19:38:23.319Z,4.93
2019-03-08T19:40:53.934Z,5.77
2019-03-08T19:43:27.413Z,5.37
2019-03-08T19:46:13.223Z,5.73
2019-03-08T19:48:57.515Z,5.60
2019-03-08T19:51:37.319Z,5.33
2019-03-08T19:54:20.430Z,6.10
2019-03-08T19:56:50.894Z,7.60
2019-03-08T19:59:18.604Z,7.93
2019-03-08T20:01:51.848Z,10.47
2019-03-08T20:04:19.535Z,11.27
2019-03-08T20:07:03.859Z,13.23
2019-03-08T20:09:31.593Z,9.40
2019-03-08T20:12:04.859Z,12.90
2019-03-08T20:14:47.682Z,10.17
2019-03-08T20:17:18.331Z,13.43
2019-03-08T20:19:54.923Z,12.73
2019-03-08T20:22:39.178Z,10.37
2019-03-08T20:25:08.560Z,9.10
2019-03-08T20:27:42.450Z,5.33
2019-03-08T20:30:18.138Z,5.00
2019-03-08T20:32:46.040Z,4.93
2019-03-08T20:35:19.674Z,4.77
2019-03-08T20:37:47.494Z,4.77
2019-03-08T20:40:21.288Z,4.63
2019-03-08T20:43:01.138Z,5.17
2019-03-08T20:45:29.144Z,5.93
2019-03-08T20:47:55.120Z,5.10
2019-03-08T20:50:21.210Z,4.93
2019-03-08T20:52:47.252Z,4.40
2019-03-08T20:55:13.195Z,5.37
2019-03-08T20:57:39.329Z,5.23
2019-03-08T21:00:09.084Z,5.50
2019-03-08T21:02:35.035Z,5.17
2019-03-08T21:05:00.819Z,5.13
2019-03-08T21:07:26.619Z,4.70
2019-03-08T21:09:52.568Z,6.23
2019-03-08T21:12:18.572Z,4.83
2019-03-08T21:14:44.572Z,4.80
2019-03-08T21:17:10.333Z,4.73
2019-03-08T21:19:36.439Z,4.13
2019-03-08T21:22:02.420Z,4.00
2019-03-08T21:24:28.208Z,5.00
2019-03-08T21:26:54.020Z,4.97
2019-03-08T21:29:19.791Z,4.60
2019-03-08T21:31:45.983Z,4.60
2019-03-08T21:34:11.914Z,4.97
2019-03-08T21:36:37.871Z,4.53
2019-03-08T21:39:04.452Z,4.60
2019-03-08T21:41:30.337Z,5.13
2019-03-08T21:43:56.127Z,4.70
2019-03-08T21:46:21.906Z,4.80
2019-03-08T21:48:47.752Z,4.73
2019-03-08T21:51:13.507Z,5.47
2019-03-08T21:53:39.433Z,4.60
2019-03-08T21:56:05.632Z,5.20
2019-03-08T21:58:31.791Z,4.73
2019-03-08T22:00:57.571Z,4.93
2019-03-08T22:03:23.557Z,4.63
2019-03-08T22:05:49.501Z,4.53
2019-03-08T22:08:17.837Z,5.13
2019-03-08T22:10:44.887Z,5.07
2019-03-08T22:13:10.683Z,5.00
2019-03-08T22:15:38.715Z,4.40
2019-03-08T22:18:08.674Z,4.93
2019-03-08T22:20:34.762Z,5.17
2019-03-08T22:23:00.556Z,5.00
2019-03-08T22:25:26.337Z,4.30
2019-03-08T22:27:52.322Z,4.20
2019-03-08T22:30:19.413Z,4.53
2019-03-08T22:32:45.202Z,5.00
2019-03-08T22:35:11.445Z,4.33
2019-03-08T22:37:37.771Z,3.93
2019-03-08T22:40:05.087Z,3.97
2019-03-08T22:42:31.291Z,3.60
2019-03-08T22:44:57.107Z,4.27
2019-03-08T22:47:23.185Z,4.77
2019-03-08T22:49:48.973Z,3.70
2019-03-08T22:52:14.747Z,4.20
2019-03-08T22:54:40.550Z,4.13
2019-03-08T22:57:06.933Z,4.50
2019-03-08T22:59:33.070Z,4.23
2019-03-08T23:02:05.100Z,3.80
2019-03-08T23:04:31.270Z,3.97
2019-03-08T23:06:57.068Z,3.93
2019-03-08T23:09:23.557Z,3.77
2019-03-08T23:11:49.647Z,4.23
2019-03-08T23:14:15.429Z,4.47
2019-03-08T23:16:41.211Z,3.63
2019-03-08T23:19:07.020Z,4.13
2019-03-08T23:21:32.803Z,4.00
2019-03-08T23:23:58.596Z,5.17
2019-03-08T23:26:24.423Z,4.93
2019-03-08T23:28:57.914Z,4.40
2019-03-08T23:31:25.600Z,4.60
2019-03-08T23:33:51.421Z,4.43
2019-03-08T23:36:17.197Z,4.60
2019-03-08T23:38:42.984Z,4.73
2019-03-08T23:41:08.773Z,3.97
2019-03-08T23:43:34.755Z,4.90
2019-03-08T23:46:00.549Z,4.50
2019-03-08T23:48:26.327Z,5.13
2019-03-08T23:50:52.122Z,4.40
2019-03-08T23:53:17.899Z,4.47
2019-03-08T23:55:43.702Z,4.87
2019-03-08T23:58:09.484Z,4.73
